Pagrindinis puslapis
METAR-TAF:

METAR-TAF

Oro uostai :

Vladikaukazas, Rusija

platuma: 43-12-18N, ilguma: 044-36-24E, Aukštis: 510 m

Dabartinis oras

Ataskaita buvo paskelbta 1 valandą ir 45 minutes, ne 17:30 UTC
Vėjas 4 kt iš Rytų, svyruoja nuo Šiaurės Rytų ir Pietryčių
Temperatūra 15°C
Drėgmė 88%
Slėgis 1021 hPa
Matomumas 10 km arba daugiau

METAR: URMO 151730Z 09002MPS 050V130 9999 NSC 15/13 Q1021 R09/010070 NOSIG RMK QFE722/0962

Laikas: 22:15 (19:15 UTC)

Prognozė

Ataskaita buvo paskelbta 5 valandos ir 15 minutes, ne 14:00 UTC
Prognozė galioja nuo 15 metu 15 UTC su 15 metu 24 UTC
Vėjas 6 kt iš Pietų/Pietvakarių su gūsio iki 16 kt
Matomumas 10 km arba daugiau
Su prošvaistėmis ne aukštis 3000 ft

TAF: URMO 151400Z 1515/1524 20003G08MPS 9999 BKN030

Orai ataskaitas ir orų prognozės (METAR, TAF).

turimą stotys yra geltonos ir raudonos taškus žemėlapyje.

Perkelti pele per norėdami pamatyti stoties vardą.

Tada spustelėkite, norėdami matyti oro stebėjimo ir prognozės.

Norėdami pakeisti žemėlapį: spustelėkite ant žalios mygtukų su juodo kryžiaus žemyn,; žalią mygtuką su brūkšneliu, jei norite nutolinti; arba žalių rodyklių gretimoms žemėlapius.


METAR-TAF: